Погода Мариалвана 2 недели

Парана, Бразилия

20 июля-01 августа
  • 20июля
    Сегодня
    +13°
    +28°
    Ясно и безоблачно
    ВремяПогодаТемператураВлажностьДавлениеВетер, м/сВероятность осадков
    00:00Ясно и безоблачно+19°C74 %715 мм2.7 м/с5 %
    03:00Ясно и безоблачно+18°C73 %714 мм2.7 м/с5 %
    06:00Ясно и безоблачно+15°C82 %714 мм2.5 м/с5 %
    09:00Ясно и безоблачно+20°C72 %716 мм2.1 м/с5 %
    12:00Ясно и безоблачно+27°C40 %717 мм2.7 м/с5 %
    15:00Ясно и безоблачно+27°C29 %714 мм1.4 м/с5 %
    18:00Ясно и безоблачно+22°C57 %713 мм2.5 м/с5 %
    21:00Ясно и безоблачно+20°C58 %713 мм1.8 м/с5 %
  • 21июля
    Воскресенье
    +15°
    +28°
    Ясно и безоблачно
    ВремяПогодаТемператураВлажностьДавлениеВетер, м/сВероятность осадков
    00:00Ясно и безоблачно+18°C54 %713 мм3.4 м/с5 %
    03:00Ясно и безоблачно+18°C55 %712 мм4.0 м/с5 %
    06:00Ясно и безоблачно+14°C53 %712 мм3.2 м/с5 %
    09:00Ясно и безоблачно+19°C51 %714 мм3.4 м/с5 %
    12:00Ясно и безоблачно+26°C41 %715 мм2.9 м/с5 %
    15:00Ясно и безоблачно+27°C39 %713 мм1.5 м/с5 %
    18:00Ясно и безоблачно+23°C67 %713 мм2.3 м/с5 %
    21:00Ясно и безоблачно+21°C76 %713 мм1.6 м/с5 %
  • 22июля
    Понедельник
    +15°
    +29°
    Ясно и безоблачно
    ВремяПогодаТемператураВлажностьДавлениеВетер, м/сВероятность осадков
    00:00Ясно и безоблачно+19°C73 %714 мм2.6 м/с5 %
    03:00Ясно и безоблачно+17°C80 %713 мм2.5 м/с5 %
    06:00Ясно и безоблачно+16°C74 %713 мм2.6 м/с5 %
    09:00Ясно и безоблачно+21°C65 %715 мм2.0 м/с5 %
    12:00Ясно и безоблачно+28°C38 %716 мм1.0 м/с5 %
    15:00Ясно и безоблачно+29°C35 %714 мм0.9 м/с5 %
    18:00Ясно и безоблачно+26°C59 %714 мм2.2 м/с5 %
    21:00Ясно и безоблачно+22°C65 %714 мм1.6 м/с5 %
  • 23июля
    Вторник
    +18°
    +28°
    Практически безоблачно
    ВремяПогодаТемператураВлажностьДавлениеВетер, м/сВероятность осадков
    00:00Ясно и безоблачно+20°C65 %714 мм2.9 м/с5 %
    03:00Ясно и безоблачно+17°C65 %713 мм2.9 м/с5 %
    06:00Ясно и безоблачно+16°C68 %713 мм3.6 м/с5 %
    09:00Ясно и безоблачно+21°C61 %716 мм3.6 м/с5 %
    12:00Ясно и безоблачно+27°C38 %716 мм3.8 м/с5 %
    15:00Практически безоблачно+28°C33 %714 мм1.9 м/с5 %
    18:00Практически безоблачно+23°C56 %714 мм2.3 м/с5 %
    21:00Небольшая облачность+21°C60 %714 мм1.9 м/с5 %
Мы используем cookies
Соглашаюсь